createdAt,value
2023-04-03T00:01:10.983Z,39.90
2023-04-03T00:03:42.902Z,40.07
2023-04-03T00:06:12.815Z,40.08
2023-04-03T00:08:40.454Z,40.09
2023-04-03T00:11:07.333Z,40.05
2023-04-03T00:13:34.221Z,39.92
2023-04-03T00:16:04.804Z,40.02
2023-04-03T00:18:35.152Z,39.95
2023-04-03T00:21:01.937Z,40.10
2023-04-03T00:23:31.328Z,39.92
2023-04-03T00:25:58.924Z,40.11
2023-04-03T00:28:27.896Z,40.12
2023-04-03T00:30:55.692Z,39.93
2023-04-03T00:33:26.540Z,39.44
2023-04-03T00:35:56.769Z,39.24
2023-04-03T00:38:23.461Z,39.84
2023-04-03T00:40:50.781Z,39.77
2023-04-03T00:43:27.520Z,39.42
2023-04-03T00:45:57.861Z,36.96
2023-04-03T00:48:29.412Z,38.54
2023-04-03T00:50:58.525Z,40.65
2023-04-03T00:53:33.577Z,40.86
2023-04-03T00:56:04.611Z,40.93
2023-04-03T00:59:05.191Z,40.95
2023-04-03T01:01:32.028Z,40.58
2023-04-03T01:04:04.290Z,40.76
2023-04-03T01:06:37.638Z,40.32
2023-04-03T01:09:04.813Z,40.78
2023-04-03T01:11:31.750Z,40.49
2023-04-03T01:14:02.765Z,40.13
2023-04-03T01:16:32.017Z,40.04
2023-04-03T01:18:59.314Z,40.23
2023-04-03T01:21:49.229Z,40.36
2023-04-03T01:24:39.615Z,40.42
2023-04-03T01:27:09.443Z,40.27
2023-04-03T01:29:38.349Z,40.72
2023-04-03T01:32:08.034Z,40.86
2023-04-03T01:34:34.716Z,40.53
2023-04-03T01:37:01.295Z,40.74
2023-04-03T01:39:30.347Z,40.75
2023-04-03T01:42:00.414Z,40.83
2023-04-03T01:44:29.804Z,40.85
2023-04-03T01:46:58.644Z,41.06
2023-04-03T01:49:25.338Z,40.81
2023-04-03T01:51:51.997Z,41.13
2023-04-03T01:57:01.587Z,41.05
2023-04-03T01:59:29.076Z,41.13
2023-04-03T02:02:00.483Z,41.23
2023-04-03T02:04:27.288Z,41.30
2023-04-03T02:06:56.224Z,41.41
2023-04-03T02:09:22.919Z,41.44
2023-04-03T02:11:51.957Z,41.45
2023-04-03T02:14:22.907Z,41.59
2023-04-03T02:16:54.239Z,41.39
2023-04-03T02:19:21.180Z,41.38
2023-04-03T02:21:47.980Z,41.31
2023-04-03T02:24:19.807Z,41.61
2023-04-03T02:26:46.497Z,41.83
2023-04-03T02:29:13.134Z,41.69
2023-04-03T02:31:39.805Z,42.22
2023-04-03T02:34:06.844Z,42.13
2023-04-03T02:36:33.507Z,42.34
2023-04-03T02:39:04.809Z,42.34
2023-04-03T02:41:36.142Z,42.42
2023-04-03T02:44:03.865Z,42.69
2023-04-03T02:46:33.506Z,42.56
2023-04-03T02:49:02.237Z,42.71
2023-04-03T02:51:28.959Z,42.72
2023-04-03T02:53:58.399Z,42.85
2023-04-03T02:56:27.882Z,42.94
2023-04-03T02:58:56.742Z,42.84
2023-04-03T03:01:28.218Z,43.44
2023-04-03T03:03:57.561Z,43.45
2023-04-03T03:06:26.658Z,43.55
2023-04-03T03:08:53.365Z,43.96
2023-04-03T03:11:22.170Z,43.88
2023-04-03T03:13:49.343Z,43.80
2023-04-03T03:16:18.358Z,43.77
2023-04-03T03:18:46.600Z,43.96
2023-04-03T03:21:15.891Z,43.91
2023-04-03T03:23:42.654Z,43.73
2023-04-03T03:26:12.187Z,44.00
2023-04-03T03:28:39.171Z,44.23
2023-04-03T03:31:08.563Z,44.21
2023-04-03T03:33:35.471Z,44.18
2023-04-03T03:36:04.340Z,44.62
2023-04-03T03:38:35.735Z,44.27
2023-04-03T03:41:02.463Z,44.33
2023-04-03T03:43:29.169Z,44.27
2023-04-03T03:45:58.103Z,44.13
2023-04-03T03:48:24.760Z,44.23
2023-04-03T03:50:51.423Z,44.25
2023-04-03T03:53:20.240Z,44.13
2023-04-03T03:55:47.348Z,44.45
2023-04-03T03:58:13.986Z,44.29
2023-04-03T04:00:40.665Z,44.13
2023-04-03T04:03:09.582Z,44.24
2023-04-03T04:05:38.842Z,44.22
2023-04-03T04:08:06.026Z,44.17
2023-04-03T04:10:34.882Z,44.39
2023-04-03T04:13:06.526Z,44.10
2023-04-03T04:15:35.701Z,44.27
2023-04-03T04:18:05.180Z,44.38
2023-04-03T04:20:31.887Z,44.37
2023-04-03T04:22:59.324Z,44.43
2023-04-03T04:25:35.964Z,44.39
2023-04-03T04:28:09.359Z,44.42
2023-04-03T04:30:38.642Z,44.08
2023-04-03T04:33:09.898Z,44.33
2023-04-03T04:35:36.755Z,44.41
2023-04-03T04:38:09.842Z,44.51
2023-04-03T04:40:41.452Z,44.58
2023-04-03T04:43:11.782Z,44.42
2023-04-03T04:45:43.186Z,44.37
2023-04-03T04:48:13.370Z,44.39
2023-04-03T04:50:42.233Z,44.47
2023-04-03T04:53:11.914Z,44.49
2023-04-03T04:55:40.862Z,44.50
2023-04-03T04:58:09.663Z,44.35
2023-04-03T05:00:38.776Z,44.50
2023-04-03T05:03:07.641Z,44.28
2023-04-03T05:05:36.753Z,44.60
2023-04-03T05:08:09.375Z,44.48
2023-04-03T05:10:36.113Z,44.68
2023-04-03T05:13:03.044Z,44.63
2023-04-03T05:15:32.639Z,44.50
2023-04-03T05:17:59.407Z,44.76
2023-04-03T05:20:28.590Z,44.72
2023-04-03T05:23:00.747Z,44.58
2023-04-03T05:25:32.850Z,44.60
2023-04-03T05:27:59.624Z,44.53
2023-04-03T05:30:28.945Z,44.88
2023-04-03T05:33:00.276Z,44.43
2023-04-03T05:35:26.942Z,44.63
2023-04-03T05:37:59.316Z,44.71
2023-04-03T05:40:28.268Z,44.92
2023-04-03T05:42:57.272Z,44.74
2023-04-03T05:45:26.184Z,44.78
2023-04-03T05:47:55.224Z,44.88
2023-04-03T05:50:24.561Z,44.82
2023-04-03T05:52:53.964Z,44.98
2023-04-03T05:55:22.769Z,45.24
2023-04-03T05:57:49.499Z,45.13
2023-04-03T06:00:16.728Z,45.12
2023-04-03T06:02:48.974Z,45.08
2023-04-03T06:05:18.398Z,45.08
2023-04-03T06:07:45.786Z,43.77
2023-04-03T06:10:16.004Z,37.44
2023-04-03T06:12:44.986Z,38.18
2023-04-03T06:15:12.949Z,36.92
2023-04-03T06:17:44.440Z,38.15
2023-04-03T06:20:14.457Z,39.47
2023-04-03T06:22:43.212Z,37.99
2023-04-03T06:25:14.619Z,37.81
2023-04-03T06:27:45.985Z,37.40
2023-04-03T06:30:14.829Z,37.87
2023-04-03T06:32:47.467Z,38.57
2023-04-03T06:35:19.566Z,38.60
2023-04-03T06:37:48.592Z,38.75
2023-04-03T06:40:19.807Z,38.09
2023-04-03T06:42:49.766Z,38.67
2023-04-03T06:45:21.281Z,39.02
2023-04-03T06:47:48.062Z,39.29
2023-04-03T06:50:17.934Z,39.35
2023-04-03T06:55:36.298Z,40.79
2023-04-03T06:58:06.040Z,41.51
2023-04-03T07:03:11.113Z,40.83
2023-04-03T07:05:45.502Z,40.58
2023-04-03T07:10:49.930Z,40.78
2023-04-03T07:13:18.981Z,40.51
2023-04-03T07:15:50.897Z,40.43
2023-04-03T07:18:34.856Z,40.70
2023-04-03T07:21:11.394Z,40.27
2023-04-03T07:23:43.282Z,40.20
2023-04-03T07:26:14.938Z,40.01
2023-04-03T07:31:21.823Z,39.72
2023-04-03T07:33:48.504Z,40.30
2023-04-03T07:36:17.801Z,39.85
2023-04-03T07:38:46.694Z,39.58
2023-04-03T07:41:18.615Z,39.38
2023-04-03T07:43:50.695Z,39.49
2023-04-03T07:46:22.297Z,39.67
2023-04-03T07:48:49.100Z,39.45
2023-04-03T07:51:21.779Z,39.42
2023-04-03T07:53:51.504Z,39.07
2023-04-03T07:56:21.876Z,39.50
2023-04-03T07:58:48.561Z,39.75
2023-04-03T08:01:15.301Z,40.21
2023-04-03T08:03:44.439Z,40.03
2023-04-03T08:06:16.987Z,39.99
2023-04-03T08:08:48.319Z,40.20
2023-04-03T08:11:19.164Z,39.83
2023-04-03T08:13:49.948Z,39.80
2023-04-03T08:16:22.373Z,39.78
2023-04-03T08:21:33.099Z,39.81
2023-04-03T08:24:02.735Z,39.64
2023-04-03T08:26:40.576Z,39.77
2023-04-03T08:29:07.544Z,39.51
2023-04-03T08:31:40.166Z,39.49
2023-04-03T08:34:08.631Z,39.47
2023-04-03T08:36:35.489Z,39.56
2023-04-03T08:39:05.145Z,39.63
2023-04-03T08:41:45.848Z,39.42
2023-04-03T08:44:23.536Z,39.42
2023-04-03T08:47:26.266Z,39.39
2023-04-03T08:50:00.606Z,39.46
2023-04-03T08:52:43.131Z,39.41
2023-04-03T08:55:28.971Z,39.42
2023-04-03T08:58:20.477Z,39.40
2023-04-03T09:00:57.609Z,39.53
2023-04-03T09:03:26.706Z,39.67
2023-04-03T09:06:12.501Z,39.88
2023-04-03T09:09:13.053Z,39.87
2023-04-03T09:12:11.515Z,39.83
2023-04-03T09:17:40.516Z,39.60
2023-04-03T09:20:46.035Z,39.59
2023-04-03T09:23:19.292Z,39.78
2023-04-03T09:25:48.217Z,39.76
2023-04-03T09:28:17.188Z,39.72
2023-04-03T09:30:46.198Z,39.60
2023-04-03T09:33:12.902Z,39.52
2023-04-03T09:35:48.182Z,39.59
2023-04-03T09:38:23.248Z,39.23
2023-04-03T09:40:54.126Z,39.36
2023-04-03T09:43:33.839Z,39.45
2023-04-03T09:46:40.681Z,39.19
2023-04-03T09:49:12.773Z,39.30
2023-04-03T09:51:41.839Z,39.19
2023-04-03T09:54:31.670Z,39.08
2023-04-03T09:57:00.596Z,39.25
2023-04-03T09:59:31.999Z,39.33
2023-04-03T10:02:03.990Z,39.02
2023-04-03T10:05:06.202Z,39.17
2023-04-03T10:07:44.402Z,39.13
2023-04-03T10:10:16.079Z,39.06
2023-04-03T10:12:45.885Z,39.34
2023-04-03T10:15:21.111Z,39.31
2023-04-03T10:17:57.019Z,39.44
2023-04-03T10:20:43.789Z,39.47
2023-04-03T10:23:21.047Z,39.24
2023-04-03T10:26:25.401Z,39.29
2023-04-03T10:29:11.086Z,39.35
2023-04-03T10:31:59.148Z,39.49
2023-04-03T10:35:02.374Z,39.43
2023-04-03T10:37:38.461Z,39.11
2023-04-03T10:40:27.155Z,39.26
2023-04-03T10:43:26.851Z,39.41
2023-04-03T10:46:16.227Z,39.80
2023-04-03T10:49:01.979Z,39.91
2023-04-03T10:51:41.427Z,40.11
2023-04-03T10:54:17.198Z,40.14
2023-04-03T10:57:04.460Z,40.21
2023-04-03T10:59:47.812Z,40.29
2023-04-03T11:02:30.236Z,40.26
2023-04-03T11:05:27.629Z,39.94
2023-04-03T11:07:54.477Z,35.79
2023-04-03T11:10:39.993Z,36.71
2023-04-03T11:13:14.147Z,37.08
2023-04-03T11:15:44.678Z,38.07
2023-04-03T11:18:17.161Z,38.56
2023-04-03T11:20:48.458Z,38.49
2023-04-03T11:23:46.045Z,38.96
2023-04-03T11:26:25.991Z,39.16
2023-04-03T11:31:46.027Z,39.85
2023-04-03T11:34:20.384Z,39.87
2023-04-03T11:36:48.590Z,39.96
2023-04-03T11:39:25.151Z,40.61
2023-04-03T11:42:10.699Z,40.18
2023-04-03T11:44:40.595Z,40.56
2023-04-03T11:49:52.110Z,40.01
2023-04-03T11:52:43.758Z,40.82
2023-04-03T11:55:31.492Z,40.63
2023-04-03T11:58:04.116Z,40.75
2023-04-03T12:00:56.132Z,40.78
2023-04-03T12:03:30.072Z,40.55
2023-04-03T12:06:06.738Z,40.56
2023-04-03T12:08:48.407Z,40.47
2023-04-03T12:11:17.756Z,40.63
2023-04-03T12:13:51.172Z,40.53
2023-04-03T12:16:47.020Z,40.55
2023-04-03T12:19:42.391Z,40.60
2023-04-03T12:22:13.935Z,40.69
2023-04-03T12:24:47.970Z,40.79
2023-04-03T12:27:35.268Z,40.75
2023-04-03T12:30:05.072Z,40.75
2023-04-03T12:32:41.466Z,40.85
2023-04-03T12:35:37.435Z,41.10
2023-04-03T12:38:31.084Z,40.93
2023-04-03T12:41:19.266Z,41.23
2023-04-03T12:43:57.117Z,41.14
2023-04-03T12:46:32.098Z,41.08
2023-04-03T12:49:01.492Z,41.07
2023-04-03T12:51:42.278Z,41.16
2023-04-03T12:54:27.684Z,40.97
2023-04-03T12:57:28.737Z,41.09
2023-04-03T12:59:58.518Z,41.10
2023-04-03T13:02:28.760Z,41.39
2023-04-03T13:05:07.493Z,41.27
2023-04-03T13:07:35.964Z,41.17
2023-04-03T13:10:22.930Z,41.25
2023-04-03T13:12:53.468Z,41.26
2023-04-03T13:15:24.525Z,41.20
2023-04-03T13:17:53.497Z,41.35
2023-04-03T13:20:37.101Z,41.44
2023-04-03T13:23:07.382Z,41.30
2023-04-03T13:25:37.627Z,41.68
2023-04-03T13:28:13.183Z,41.32
2023-04-03T13:30:41.555Z,41.27
2023-04-03T13:33:24.001Z,41.51
2023-04-03T13:36:06.129Z,41.37
2023-04-03T13:38:34.771Z,41.44
2023-04-03T13:43:41.946Z,41.54
2023-04-03T13:46:12.009Z,41.56
2023-04-03T13:48:41.092Z,41.49
2023-04-03T13:51:16.955Z,41.73
2023-04-03T13:53:46.368Z,41.63
2023-04-03T13:56:24.602Z,41.77
2023-04-03T13:59:02.219Z,41.54
2023-04-03T14:01:39.830Z,41.76
2023-04-03T14:04:45.261Z,41.74
2023-04-03T14:07:17.883Z,41.78
2023-04-03T14:09:47.174Z,41.74
2023-04-03T14:12:38.216Z,41.64
2023-04-03T14:15:06.975Z,41.73
2023-04-03T14:17:34.573Z,41.99
2023-04-03T14:20:02.656Z,41.70
2023-04-03T14:22:31.532Z,41.99
2023-04-03T14:25:03.076Z,42.07
2023-04-03T14:27:39.062Z,45.59
2023-04-03T14:30:10.673Z,46.54
2023-04-03T14:32:39.869Z,46.26
2023-04-03T14:35:08.309Z,47.98
2023-04-03T14:37:40.252Z,48.59
2023-04-03T14:40:09.288Z,46.60
2023-04-03T14:42:42.195Z,46.11
2023-04-03T14:45:11.262Z,45.79
2023-04-03T14:47:47.848Z,45.74
2023-04-03T14:50:24.977Z,45.60
2023-04-03T14:52:57.405Z,45.54
2023-04-03T14:55:26.364Z,45.24
2023-04-03T14:57:53.492Z,45.29
2023-04-03T15:00:23.556Z,45.07
2023-04-03T15:02:52.523Z,44.89
2023-04-03T15:05:25.006Z,44.96
2023-04-03T15:07:56.349Z,44.74
2023-04-03T15:10:30.449Z,44.39
2023-04-03T15:13:01.921Z,44.45
2023-04-03T15:15:31.947Z,44.64
2023-04-03T15:17:59.287Z,44.39
2023-04-03T15:20:27.441Z,44.31
2023-04-03T15:22:54.422Z,44.29
2023-04-03T15:25:21.190Z,44.09
2023-04-03T15:27:50.191Z,44.31
2023-04-03T15:30:19.691Z,44.12
2023-04-03T15:32:48.837Z,44.24
2023-04-03T15:35:20.296Z,44.17
2023-04-03T15:37:49.283Z,44.00
2023-04-03T15:40:18.574Z,43.87
2023-04-03T15:42:51.327Z,43.64
2023-04-03T15:45:25.044Z,43.24
2023-04-03T15:47:54.167Z,43.66
2023-04-03T15:50:25.022Z,43.42
2023-04-03T15:52:55.378Z,43.37
2023-04-03T15:55:25.991Z,43.34
2023-04-03T15:57:53.484Z,43.27
2023-04-03T16:00:21.288Z,43.44
2023-04-03T16:02:48.323Z,43.31
2023-04-03T16:05:18.353Z,43.24
2023-04-03T16:07:49.737Z,43.31
2023-04-03T16:10:22.204Z,43.12
2023-04-03T16:12:48.988Z,43.14
2023-04-03T16:15:18.096Z,43.11
2023-04-03T16:17:49.606Z,43.22
2023-04-03T16:20:22.617Z,43.20
2023-04-03T16:22:52.208Z,43.23
2023-04-03T16:25:22.074Z,43.08
2023-04-03T16:27:48.988Z,43.07
2023-04-03T16:30:17.890Z,43.18
2023-04-03T16:32:45.068Z,43.21
2023-04-03T16:35:12.020Z,43.12
2023-04-03T16:37:39.917Z,43.12
2023-04-03T16:40:07.793Z,43.24
2023-04-03T16:42:39.198Z,43.04
2023-04-03T16:45:10.191Z,42.99
2023-04-03T16:47:43.037Z,43.03
2023-04-03T16:50:10.031Z,43.15
2023-04-03T16:52:39.243Z,42.76
2023-04-03T16:55:07.593Z,43.04
2023-04-03T16:57:36.454Z,43.22
2023-04-03T17:00:09.371Z,42.95
2023-04-03T17:02:36.279Z,43.15
2023-04-03T17:05:03.156Z,43.20
2023-04-03T17:07:29.878Z,43.10
2023-04-03T17:10:01.197Z,43.15
2023-04-03T17:12:30.617Z,43.21
2023-04-03T17:15:01.981Z,43.04
2023-04-03T17:17:31.820Z,43.00
2023-04-03T17:19:58.681Z,43.16
2023-04-03T17:22:27.560Z,43.30
2023-04-03T17:24:59.128Z,42.96
2023-04-03T17:27:28.469Z,43.02
2023-04-03T17:29:57.331Z,43.10
2023-04-03T17:32:26.494Z,43.20
2023-04-03T17:34:56.325Z,43.52
2023-04-03T17:37:25.174Z,43.57
2023-04-03T17:39:56.608Z,43.55
2023-04-03T17:42:23.320Z,43.53
2023-04-03T17:44:52.193Z,43.13
2023-04-03T17:47:19.346Z,42.91
2023-04-03T17:49:48.218Z,42.71
2023-04-03T17:52:14.919Z,43.04
2023-04-03T17:54:43.828Z,43.22
2023-04-03T17:57:12.933Z,43.18
2023-04-03T17:59:41.768Z,43.36
2023-04-03T18:02:10.602Z,43.46
2023-04-03T18:04:39.841Z,43.52
2023-04-03T18:07:10.175Z,43.34
2023-04-03T18:09:39.611Z,43.08
2023-04-03T18:12:09.416Z,43.25
2023-04-03T18:14:36.502Z,43.18
2023-04-03T18:17:05.932Z,43.22
2023-04-03T18:19:32.867Z,43.15
2023-04-03T18:22:05.330Z,43.27
2023-04-03T18:24:34.865Z,43.42
2023-04-03T18:27:14.548Z,43.43
2023-04-03T18:29:45.390Z,43.43
2023-04-03T18:32:13.530Z,43.51
2023-04-03T18:34:40.402Z,43.75
2023-04-03T18:37:12.621Z,43.71
2023-04-03T18:39:41.464Z,43.84
2023-04-03T18:42:22.262Z,43.97
2023-04-03T18:44:53.727Z,43.97
2023-04-03T18:47:25.108Z,43.92
2023-04-03T18:49:51.755Z,44.20
2023-04-03T18:52:19.022Z,44.17
2023-04-03T18:54:48.009Z,44.15
2023-04-03T18:57:16.973Z,43.99
2023-04-03T18:59:43.860Z,44.12
2023-04-03T19:02:11.165Z,44.10
2023-04-03T19:04:40.019Z,44.32
2023-04-03T19:07:12.116Z,44.28
2023-04-03T19:09:39.579Z,44.41
2023-04-03T19:12:09.395Z,44.29
2023-04-03T19:14:36.057Z,44.18
2023-04-03T19:17:04.170Z,44.65
2023-04-03T19:19:36.186Z,44.59
2023-04-03T19:22:05.042Z,44.70
2023-04-03T19:24:33.980Z,44.77
2023-04-03T19:27:04.374Z,44.77
2023-04-03T19:29:31.079Z,44.78
2023-04-03T19:31:57.768Z,44.76
2023-04-03T19:34:26.682Z,44.84
2023-04-03T19:36:55.817Z,44.91
2023-04-03T19:39:24.657Z,44.91
2023-04-03T19:41:53.949Z,45.05
2023-04-03T19:44:20.760Z,45.08
2023-04-03T19:46:51.053Z,45.17
2023-04-03T19:49:18.902Z,45.12
2023-04-03T19:51:53.679Z,45.13
2023-04-03T19:54:20.967Z,45.15
2023-04-03T19:56:49.825Z,45.01
2023-04-03T19:59:18.724Z,44.95
2023-04-03T20:01:48.168Z,45.17
2023-04-03T20:04:20.016Z,45.06
2023-04-03T20:06:46.806Z,45.02
2023-04-03T20:09:13.485Z,44.88
2023-04-03T20:11:43.086Z,45.07
2023-04-03T20:14:12.403Z,44.84
2023-04-03T20:16:43.748Z,44.99
2023-04-03T20:19:13.570Z,45.07
2023-04-03T20:21:40.462Z,45.14
2023-04-03T20:24:12.059Z,45.01
2023-04-03T20:26:43.896Z,45.13
2023-04-03T20:29:10.511Z,45.15
2023-04-03T20:31:41.887Z,45.09
2023-04-03T20:34:09.286Z,45.15
2023-04-03T20:36:38.758Z,45.15
2023-04-03T20:39:07.784Z,45.08
2023-04-03T20:41:37.265Z,45.14
2023-04-03T20:44:04.596Z,45.13
2023-04-03T20:46:51.190Z,45.20
2023-04-03T20:49:19.351Z,45.22
2023-04-03T20:51:49.055Z,45.37
2023-04-03T20:54:18.492Z,45.31
2023-04-03T20:56:50.029Z,45.09
2023-04-03T20:59:17.116Z,45.20
2023-04-03T21:01:45.922Z,45.29
2023-04-03T21:04:15.902Z,45.23
2023-04-03T21:07:20.118Z,45.26
2023-04-03T21:10:24.704Z,45.33
2023-04-03T21:13:29.207Z,45.28
2023-04-03T21:15:56.071Z,45.33
2023-04-03T21:18:35.507Z,45.34
2023-04-03T21:21:02.919Z,45.34
2023-04-03T21:23:30.585Z,45.38
2023-04-03T21:25:58.110Z,45.41
2023-04-03T21:28:25.162Z,45.56
2023-04-03T21:30:59.515Z,45.47
2023-04-03T21:33:28.705Z,45.52
2023-04-03T21:35:58.687Z,45.56
2023-04-03T21:38:32.366Z,45.52
2023-04-03T21:41:02.244Z,45.50
2023-04-03T21:43:33.914Z,45.38
2023-04-03T21:46:02.939Z,45.33
2023-04-03T21:48:32.804Z,45.08
2023-04-03T21:51:08.147Z,45.12
2023-04-03T21:53:35.592Z,45.20
2023-04-03T21:56:06.874Z,45.00
2023-04-03T21:58:35.548Z,44.95
2023-04-03T22:01:11.893Z,44.98
2023-04-03T22:03:41.718Z,45.06
2023-04-03T22:06:34.206Z,44.90
2023-04-03T22:09:03.309Z,45.63
2023-04-03T22:11:32.343Z,46.03
2023-04-03T22:14:01.204Z,46.07
2023-04-03T22:16:28.109Z,46.38
2023-04-03T22:18:56.939Z,43.75
2023-04-03T22:21:27.201Z,45.16
2023-04-03T22:23:54.740Z,46.62
2023-04-03T22:26:23.720Z,46.96
2023-04-03T22:28:50.435Z,46.87
2023-04-03T22:31:20.666Z,46.80
2023-04-03T22:33:49.491Z,47.34
2023-04-03T22:36:16.430Z,48.10
2023-04-03T22:38:47.298Z,47.35
2023-04-03T22:41:13.963Z,47.67
2023-04-03T22:43:43.299Z,47.63
2023-04-03T22:46:12.096Z,48.03
2023-04-03T22:48:41.103Z,47.85
2023-04-03T22:51:08.522Z,48.01
2023-04-03T22:53:38.641Z,48.02
2023-04-03T22:56:12.012Z,48.33
2023-04-03T22:58:42.653Z,48.23
2023-04-03T23:01:13.177Z,48.46
2023-04-03T23:03:43.253Z,48.36
2023-04-03T23:06:13.045Z,48.56
2023-04-03T23:08:42.032Z,48.43
2023-04-03T23:11:11.513Z,48.66
2023-04-03T23:13:38.396Z,48.79
2023-04-03T23:16:05.422Z,48.63
2023-04-03T23:18:32.933Z,48.40
2023-04-03T23:21:00.109Z,48.50
2023-04-03T23:23:32.069Z,48.44
2023-04-03T23:26:04.697Z,48.55
2023-04-03T23:28:31.517Z,48.66
2023-04-03T23:31:02.455Z,48.87
2023-04-03T23:33:30.710Z,48.95
2023-04-03T23:35:59.822Z,49.00
2023-04-03T23:38:29.626Z,48.67
2023-04-03T23:40:58.560Z,48.82
2023-04-03T23:43:32.480Z,48.85
2023-04-03T23:46:05.307Z,48.65
2023-04-03T23:48:37.082Z,49.03
2023-04-03T23:51:06.155Z,49.06
2023-04-03T23:53:32.765Z,48.88
2023-04-03T23:56:01.703Z,49.11
2023-04-03T23:58:30.459Z,49.13
